Time,TemperatureF,DewpointF,PressureIn,WindDirection,WindDirectionDegrees,WindSpeedMPH,WindSpeedGustMPH,Humidity,HourlyPrecipIn,Conditions,Clouds,dailyrainin,SoftwareType,DateUTC
2013-08-24 00:00:00,70.2,67.8,30.01,ESE,121,8.0,11.0,92,0.00,,,0.01,VWS V14.01,2013-08-24 05:00:00,
2013-08-24 00:01:00,69.5,67.1,30.01,ESE,122,10.0,11.0,92,0.00,,CLR,0.00,VWS V14.01,2013-08-24 05:01:00,
2013-08-24 00:06:00,69.5,67.1,30.01,SE,133,7.0,11.0,92,0.00,,CLR,0.00,VWS V14.01,2013-08-24 05:06:00,
2013-08-24 00:11:00,69.4,67.0,30.01,ESE,120,9.0,11.0,92,0.00,,CLR,0.00,VWS V14.01,2013-08-24 05:11:00,
2013-08-24 00:16:00,69.5,67.1,30.01,SE,145,10.0,12.0,92,0.00,,CLR,0.00,VWS V14.01,2013-08-24 05:16:00,
2013-08-24 00:21:00,69.5,66.8,30.01,SSE,148,8.0,12.0,91,0.00,,CLR,0.00,VWS V14.01,2013-08-24 05:21:00,
2013-08-24 00:26:00,69.5,66.8,30.01,SE,126,8.0,12.0,91,0.00,,CLR,0.00,VWS V14.01,2013-08-24 05:26:00,
2013-08-24 00:30:00,69.6,67.5,30.01,SE,125,6.0,10.0,93,0.00,,,0.01,VWS V14.01,2013-08-24 05:30:00,
2013-08-24 00:31:00,69.5,66.8,30.01,ESE,122,8.0,11.0,91,0.00,,CLR,0.00,VWS V14.01,2013-08-24 05:31:00,
2013-08-24 00:36:00,69.5,66.8,30.01,SE,131,6.0,12.0,91,0.00,,CLR,0.00,VWS V14.01,2013-08-24 05:36:00,
2013-08-24 00:41:00,69.2,66.8,30.01,ESE,114,10.0,12.0,92,0.00,,CLR,0.00,VWS V14.01,2013-08-24 05:41:00,
2013-08-24 00:52:00,69.1,66.7,30.02,SE,131,7.0,12.0,92,0.00,,CLR,0.00,VWS V14.01,2013-08-24 05:52:00,
2013-08-24 01:00:00,69.5,67.1,30.01,ESE,110,11.0,12.0,92,0.00,,,0.00,VWS V14.01,2013-08-24 06:00:00,
2013-08-24 01:08:00,69.0,66.6,30.02,SE,144,6.0,9.0,92,0.00,,CLR,0.00,VWS V14.01,2013-08-24 06:08:00,
2013-08-24 01:13:00,69.0,66.6,30.02,SE,139,6.0,10.0,92,0.00,,CLR,0.00,VWS V14.01,2013-08-24 06:13:00,
2013-08-24 01:18:00,69.1,66.4,30.02,SE,141,5.0,11.0,91,0.00,,CLR,0.00,VWS V14.01,2013-08-24 06:18:00,
2013-08-24 01:23:00,69.0,66.3,30.02,SE,134,5.0,11.0,91,0.00,,CLR,0.00,VWS V14.01,2013-08-24 06:23:00,
2013-08-24 01:28:00,69.0,66.3,30.02,ESE,123,8.0,11.0,91,0.00,,CLR,0.00,VWS V14.01,2013-08-24 06:28:00,
2013-08-24 01:30:00,69.5,66.8,30.01,SE,139,6.0,12.0,91,0.00,,,0.00,VWS V14.01,2013-08-24 06:30:00,
2013-08-24 01:33:00,69.0,66.3,30.02,ESE,115,7.0,8.0,91,0.00,,CLR,0.00,VWS V14.01,2013-08-24 06:33:00,
2013-08-24 01:38:00,69.0,66.3,30.02,SSE,148,6.0,9.0,91,0.00,,CLR,0.00,VWS V14.01,2013-08-24 06:38:00,
2013-08-24 01:43:00,69.1,66.4,30.02,SSE,152,8.0,10.0,91,0.00,,CLR,0.00,VWS V14.01,2013-08-24 06:43:00,
2013-08-24 01:48:00,69.2,66.5,30.02,SE,131,7.0,11.0,91,0.00,,CLR,0.00,VWS V14.01,2013-08-24 06:48:00,
2013-08-24 01:53:00,69.2,66.2,30.02,SE,131,5.0,11.0,90,0.00,,CLR,0.00,VWS V14.01,2013-08-24 06:53:00,
2013-08-24 01:58:00,69.1,66.4,30.02,ESE,121,7.0,11.0,91,0.00,,BKN060,0.00,VWS V14.01,2013-08-24 06:58:00,
2013-08-24 02:00:00,69.0,66.6,30.02,SE,134,8.0,12.0,92,0.00,,,0.00,VWS V14.01,2013-08-24 07:00:00,
2013-08-24 02:03:00,69.0,66.3,30.02,SE,136,4.0,9.0,91,0.00,,BKN060,0.00,VWS V14.01,2013-08-24 07:03:00,
2013-08-24 02:08:00,69.0,66.3,30.02,ESE,123,8.0,9.0,91,0.00,,BKN060,0.00,VWS V14.01,2013-08-24 07:08:00,
2013-08-24 02:13:00,68.8,66.1,30.02,SE,135,5.0,9.0,91,0.00,,BKN060,0.00,VWS V14.01,2013-08-24 07:13:00,
2013-08-24 02:18:00,68.8,66.1,30.02,SE,125,9.0,10.0,91,0.00,,BKN060,0.00,VWS V14.01,2013-08-24 07:18:00,
2013-08-24 02:23:00,68.7,66.0,30.02,ESE,110,7.0,10.0,91,0.00,,BKN060,0.00,VWS V14.01,2013-08-24 07:23:00,
2013-08-24 02:28:00,68.7,66.0,30.02,SSE,152,7.0,10.0,91,0.00,,BKN060,0.00,VWS V14.01,2013-08-24 07:28:00,
2013-08-24 02:30:00,69.0,66.3,30.02,SE,128,7.0,11.0,91,0.00,,,0.00,VWS V14.01,2013-08-24 07:30:00,
2013-08-24 02:33:00,68.7,66.0,30.02,SE,142,8.0,10.0,91,0.00,,BKN060,0.00,VWS V14.01,2013-08-24 07:33:00,
2013-08-24 02:38:00,68.7,66.0,30.02,ESE,115,10.0,11.0,91,0.00,,BKN060,0.00,VWS V14.01,2013-08-24 07:38:00,
2013-08-24 02:43:00,68.8,66.1,30.02,SE,125,7.0,11.0,91,0.00,,BKN060,0.00,VWS V14.01,2013-08-24 07:43:00,
2013-08-24 02:48:00,68.7,66.0,30.02,SE,131,7.0,11.0,91,0.00,,BKN060,0.00,VWS V14.01,2013-08-24 07:48:00,
2013-08-24 02:53:00,68.6,65.9,30.02,SE,145,7.0,11.0,91,0.00,,BKN060,0.00,VWS V14.01,2013-08-24 07:53:00,
2013-08-24 02:58:00,68.6,65.9,30.02,SSE,150,7.0,12.0,91,0.00,,BKN060,0.00,VWS V14.01,2013-08-24 07:58:00,
2013-08-24 03:00:00,69.0,66.3,30.02,ESE,113,6.0,11.0,91,0.00,,,0.00,VWS V14.01,2013-08-24 08:00:00,
2013-08-24 03:03:00,68.6,65.9,30.02,SE,135,10.0,11.0,91,0.00,,FEW050,0.00,VWS V14.01,2013-08-24 08:03:00,
2013-08-24 03:08:00,68.5,65.8,30.02,ESE,120,8.0,12.0,91,0.00,,FEW050,0.00,VWS V14.01,2013-08-24 08:08:00,
2013-08-24 03:13:00,68.5,65.8,30.02,SE,142,7.0,12.0,91,0.00,,FEW050,0.00,VWS V14.01,2013-08-24 08:13:00,
2013-08-24 03:23:00,68.4,65.7,30.02,SE,131,8.0,12.0,91,0.00,,FEW050,0.00,VWS V14.01,2013-08-24 08:23:00,
2013-08-24 03:30:00,68.7,66.0,30.02,SE,133,6.0,10.0,91,0.00,,,0.00,VWS V14.01,2013-08-24 08:30:00,
2013-08-24 03:33:00,68.4,65.7,30.02,ESE,119,9.0,11.0,91,0.00,,FEW050,0.00,VWS V14.01,2013-08-24 08:33:00,
2013-08-24 03:38:00,68.3,65.6,30.02,SE,139,7.0,12.0,91,0.00,,FEW050,0.00,VWS V14.01,2013-08-24 08:38:00,
2013-08-24 03:43:00,68.3,65.9,30.02,SE,129,10.0,12.0,92,0.00,,FEW050,0.00,VWS V14.01,2013-08-24 08:43:00,
2013-08-24 03:48:00,68.2,65.8,30.02,ESE,120,7.0,12.0,92,0.00,,FEW050,0.00,VWS V14.01,2013-08-24 08:48:00,
2013-08-24 03:53:00,68.1,65.7,30.02,SE,145,4.0,12.0,92,0.00,,FEW050,0.00,VWS V14.01,2013-08-24 08:53:00,
2013-08-24 03:58:00,68.0,65.6,30.02,ESE,120,6.0,12.0,92,0.00,,CLR,0.00,VWS V14.01,2013-08-24 08:58:00,
2013-08-24 04:00:00,68.6,65.9,30.02,SE,138,9.0,12.0,91,0.00,,,0.00,VWS V14.01,2013-08-24 09:00:00,
2013-08-24 04:03:00,67.9,65.5,30.02,SE,135,8.0,9.0,92,0.00,,CLR,0.00,VWS V14.01,2013-08-24 09:03:00,
2013-08-24 04:08:00,67.8,65.4,30.02,SE,134,9.0,10.0,92,0.00,,CLR,0.00,VWS V14.01,2013-08-24 09:08:00,
2013-08-24 04:13:00,67.7,65.6,30.02,SE,131,6.0,10.0,93,0.00,,CLR,0.00,VWS V14.01,2013-08-24 09:13:00,
2013-08-24 04:18:00,67.7,65.6,30.03,SE,132,6.0,10.0,93,0.00,,CLR,0.00,VWS V14.01,2013-08-24 09:18:00,
2013-08-24 04:23:00,67.6,65.5,30.03,SE,129,6.0,10.0,93,0.00,,CLR,0.00,VWS V14.01,2013-08-24 09:23:00,
2013-08-24 04:28:00,67.6,65.5,30.03,SE,131,7.0,10.0,93,0.00,,CLR,0.00,VWS V14.01,2013-08-24 09:28:00,
2013-08-24 04:30:00,68.4,65.7,30.02,SE,129,10.0,12.0,91,0.00,,,0.00,VWS V14.01,2013-08-24 09:30:00,
2013-08-24 04:33:00,67.6,65.5,30.03,SE,132,6.0,9.0,93,0.00,,CLR,0.00,VWS V14.01,2013-08-24 09:33:00,
2013-08-24 04:38:00,67.6,65.5,30.03,SE,131,7.0,12.0,93,0.00,,CLR,0.00,VWS V14.01,2013-08-24 09:38:00,
2013-08-24 04:43:00,67.5,65.4,30.03,SE,143,8.0,12.0,93,0.00,,CLR,0.00,VWS V14.01,2013-08-24 09:43:00,
2013-08-24 04:48:00,67.5,65.4,30.03,SE,131,8.0,12.0,93,0.00,,CLR,0.00,VWS V14.01,2013-08-24 09:48:00,
2013-08-24 04:53:00,67.5,65.4,30.03,SE,142,6.0,12.0,93,0.00,,CLR,0.00,VWS V14.01,2013-08-24 09:53:00,
2013-08-24 04:58:00,67.4,65.3,30.03,ESE,115,8.0,12.0,93,0.00,,CLR,0.00,VWS V14.01,2013-08-24 09:58:00,
2013-08-24 05:00:00,67.9,65.5,30.02,ESE,120,9.0,12.0,92,0.00,,,0.00,VWS V14.01,2013-08-24 10:00:00,
2013-08-24 05:03:00,67.3,65.2,30.03,ESE,121,11.0,11.0,93,0.00,,CLR,0.00,VWS V14.01,2013-08-24 10:03:00,
2013-08-24 05:08:00,67.2,65.4,30.03,SE,128,6.0,12.0,94,0.00,,CLR,0.00,VWS V14.01,2013-08-24 10:08:00,
2013-08-24 05:13:00,67.1,65.3,30.03,ESE,110,9.0,12.0,94,0.00,,CLR,0.00,VWS V14.01,2013-08-24 10:13:00,
2013-08-24 05:18:00,67.0,65.2,30.03,SE,135,7.0,12.0,94,0.00,,CLR,0.00,VWS V14.01,2013-08-24 10:18:00,
2013-08-24 05:23:00,67.0,65.2,30.03,SE,131,6.0,12.0,94,0.00,,CLR,0.00,VWS V14.01,2013-08-24 10:23:00,
2013-08-24 05:28:00,66.9,65.1,30.03,SE,125,6.0,12.0,94,0.00,,CLR,0.00,VWS V14.01,2013-08-24 10:28:00,
2013-08-24 05:30:00,67.6,65.5,30.03,SE,128,8.0,10.0,93,0.00,,,0.00,VWS V14.01,2013-08-24 10:30:00,
2013-08-24 05:33:00,66.9,65.1,30.03,ESE,123,6.0,10.0,94,0.00,,CLR,0.00,VWS V14.01,2013-08-24 10:33:00,
2013-08-24 05:38:00,66.9,65.1,30.04,ESE,112,8.0,10.0,94,0.00,,CLR,0.00,VWS V14.01,2013-08-24 10:38:00,
2013-08-24 05:43:00,66.9,65.4,30.04,ESE,112,7.0,10.0,95,0.00,,CLR,0.00,VWS V14.01,2013-08-24 10:43:00,
2013-08-24 05:48:00,66.9,65.4,30.04,ESE,121,6.0,12.0,95,0.00,,CLR,0.00,VWS V14.01,2013-08-24 10:48:00,
2013-08-24 05:53:00,66.9,65.1,30.04,SE,143,7.0,12.0,94,0.00,,CLR,0.00,VWS V14.01,2013-08-24 10:53:00,
2013-08-24 05:58:00,66.9,65.4,30.05,SE,132,7.0,12.0,95,0.00,,CLR,0.00,VWS V14.01,2013-08-24 10:58:00,
2013-08-24 06:00:00,67.3,65.2,30.03,ESE,112,6.0,12.0,93,0.00,,,0.00,VWS V14.01,2013-08-24 11:00:00,
2013-08-24 06:03:00,66.9,65.4,30.05,ESE,118,6.0,8.0,95,0.00,,CLR,0.00,VWS V14.01,2013-08-24 11:03:00,
2013-08-24 06:08:00,67.0,65.2,30.05,SSE,152,8.0,9.0,94,0.00,,CLR,0.00,VWS V14.01,2013-08-24 11:08:00,
2013-08-24 06:13:00,67.0,65.2,30.05,SE,128,6.0,11.0,94,0.00,,CLR,0.00,VWS V14.01,2013-08-24 11:13:00,
2013-08-24 06:18:00,66.9,65.1,30.05,SE,127,9.0,11.0,94,0.00,,CLR,0.00,VWS V14.01,2013-08-24 11:18:00,
2013-08-24 06:23:00,66.9,65.1,30.06,SE,128,7.0,11.0,94,0.00,,CLR,0.00,VWS V14.01,2013-08-24 11:23:00,
2013-08-24 06:28:00,66.9,65.4,30.06,SE,126,6.0,11.0,95,0.00,,CLR,0.00,VWS V14.01,2013-08-24 11:28:00,
2013-08-24 06:30:00,66.9,65.1,30.03,ESE,123,7.0,12.0,94,0.00,,,0.00,VWS V14.01,2013-08-24 11:30:00,
2013-08-24 06:33:00,66.8,65.3,30.06,SE,138,6.0,8.0,95,0.00,,CLR,0.00,VWS V14.01,2013-08-24 11:33:00,
2013-08-24 06:38:00,66.7,65.2,30.06,SE,132,5.0,8.0,95,0.00,,CLR,0.00,VWS V14.01,2013-08-24 11:38:00,
2013-08-24 06:43:00,66.7,65.2,30.06,ESE,115,6.0,8.0,95,0.00,,CLR,0.00,VWS V14.01,2013-08-24 11:43:00,
2013-08-24 06:48:00,66.6,65.1,30.06,SE,127,6.0,9.0,95,0.00,,CLR,0.00,VWS V14.01,2013-08-24 11:48:00,
2013-08-24 06:53:00,66.5,65.0,30.06,SE,138,7.0,10.0,95,0.00,,CLR,0.00,VWS V14.01,2013-08-24 11:53:00,
2013-08-24 06:58:00,66.6,65.1,30.06,ESE,121,9.0,10.0,95,0.00,,CLR,0.00,VWS V14.01,2013-08-24 11:58:00,
2013-08-24 07:00:00,66.9,65.1,30.05,SE,132,6.0,12.0,94,0.00,,,0.00,VWS V14.01,2013-08-24 12:00:00,
2013-08-24 07:03:00,66.6,65.1,30.06,SE,125,7.0,11.0,95,0.00,,CLR,0.00,VWS V14.01,2013-08-24 12:03:00,
2013-08-24 07:08:00,66.6,65.1,30.06,SE,129,9.0,11.0,95,0.00,,CLR,0.00,VWS V14.01,2013-08-24 12:08:00,
2013-08-24 07:13:00,66.7,65.2,30.06,ESE,110,8.0,12.0,95,0.00,,CLR,0.00,VWS V14.01,2013-08-24 12:13:00,
2013-08-24 07:18:00,66.7,65.2,30.06,SE,134,7.0,12.0,95,0.00,,CLR,0.00,VWS V14.01,2013-08-24 12:18:00,
2013-08-24 07:23:00,66.8,65.3,30.06,SE,124,10.0,12.0,95,0.00,,CLR,0.00,VWS V14.01,2013-08-24 12:23:00,
2013-08-24 07:28:00,66.8,65.3,30.06,SE,125,6.0,12.0,95,0.00,,CLR,0.00,VWS V14.01,2013-08-24 12:28:00,
2013-08-24 07:30:00,66.8,65.3,30.06,SE,129,5.0,11.0,95,0.00,,,0.00,VWS V14.01,2013-08-24 12:30:00,
2013-08-24 07:33:00,66.9,65.4,30.06,ESE,104,8.0,10.0,95,0.00,,CLR,0.00,VWS V14.01,2013-08-24 12:33:00,
2013-08-24 07:38:00,67.0,65.5,30.06,SE,129,7.0,10.0,95,0.00,,CLR,0.00,VWS V14.01,2013-08-24 12:38:00,
2013-08-24 07:43:00,67.2,65.7,30.06,SE,134,8.0,10.0,95,0.00,,CLR,0.00,VWS V14.01,2013-08-24 12:43:00,
2013-08-24 07:48:00,67.4,65.6,30.06,SE,129,12.0,12.0,94,0.00,,CLR,0.00,VWS V14.01,2013-08-24 12:48:00,
2013-08-24 07:53:00,67.7,65.9,30.06,ESE,111,10.0,12.0,94,0.00,,CLR,0.00,VWS V14.01,2013-08-24 12:53:00,
2013-08-24 07:58:00,67.9,65.8,30.06,ESE,114,8.0,12.0,93,0.00,,CLR,0.00,VWS V14.01,2013-08-24 12:58:00,
2013-08-24 08:00:00,66.6,65.1,30.06,SE,129,8.0,11.0,95,0.00,,,0.00,VWS V14.01,2013-08-24 13:00:00,
2013-08-24 08:03:00,68.1,66.0,30.07,SSE,152,10.0,10.0,93,0.00,,CLR,0.00,VWS V14.01,2013-08-24 13:03:00,
2013-08-24 08:08:00,68.3,66.2,30.07,SE,136,10.0,14.0,93,0.00,,CLR,0.00,VWS V14.01,2013-08-24 13:08:00,
2013-08-24 08:13:00,68.6,66.5,30.07,SE,145,8.0,14.0,93,0.00,,CLR,0.00,VWS V14.01,2013-08-24 13:13:00,
2013-08-24 08:18:00,68.7,66.3,30.07,SE,126,7.0,14.0,92,0.00,,CLR,0.00,VWS V14.01,2013-08-24 13:18:00,
2013-08-24 08:23:00,68.7,66.3,30.07,SSE,163,6.0,14.0,92,0.00,,CLR,0.00,VWS V14.01,2013-08-24 13:23:00,
2013-08-24 08:28:00,68.9,66.5,30.07,SE,135,9.0,14.0,92,0.00,,CLR,0.00,VWS V14.01,2013-08-24 13:28:00,
2013-08-24 08:30:00,66.8,65.3,30.06,ESE,122,10.0,12.0,95,0.00,,,0.00,VWS V14.01,2013-08-24 13:30:00,
2013-08-24 08:33:00,69.3,66.9,30.06,SE,143,10.0,12.0,92,0.00,,CLR,0.00,VWS V14.01,2013-08-24 13:33:00,
2013-08-24 08:38:00,69.8,67.1,30.06,SSE,166,8.0,13.0,91,0.00,,CLR,0.00,VWS V14.01,2013-08-24 13:38:00,
2013-08-24 08:43:00,70.5,67.4,30.06,SE,135,8.0,14.0,90,0.00,,CLR,0.00,VWS V14.01,2013-08-24 13:43:00,
2013-08-24 08:48:00,70.9,67.5,30.06,SE,140,11.0,15.0,89,0.00,,CLR,0.00,VWS V14.01,2013-08-24 13:48:00,
2013-08-24 08:53:00,71.4,68.0,30.06,SE,125,8.0,15.0,89,0.00,,CLR,0.00,VWS V14.01,2013-08-24 13:53:00,
2013-08-24 08:58:00,71.8,68.4,30.06,SSE,149,11.0,15.0,89,0.00,,CLR,0.00,VWS V14.01,2013-08-24 13:58:00,
2013-08-24 09:00:00,68.0,65.9,30.07,SSE,150,9.0,13.0,93,0.00,,,0.00,VWS V14.01,2013-08-24 14:00:00,
2013-08-24 09:03:00,72.1,68.3,30.06,SSE,155,6.0,15.0,88,0.00,,CLR,0.00,VWS V14.01,2013-08-24 14:03:00,
2013-08-24 09:08:00,72.4,68.7,30.06,SSE,155,6.0,15.0,88,0.00,,CLR,0.00,VWS V14.01,2013-08-24 14:08:00,
2013-08-24 09:13:00,72.5,68.4,30.06,SE,138,11.0,15.0,87,0.00,,CLR,0.00,VWS V14.01,2013-08-24 14:13:00,
2013-08-24 09:18:00,72.7,68.9,30.06,SSE,158,7.0,15.0,88,0.00,,CLR,0.00,VWS V14.01,2013-08-24 14:18:00,
2013-08-24 09:23:00,72.7,68.6,30.06,SE,139,9.0,15.0,87,0.00,,CLR,0.00,VWS V14.01,2013-08-24 14:23:00,
2013-08-24 09:28:00,72.9,68.8,30.06,SE,145,9.0,15.0,87,0.00,,CLR,0.00,VWS V14.01,2013-08-24 14:28:00,
2013-08-24 09:30:00,69.1,66.7,30.06,SE,140,9.0,14.0,92,0.00,,,0.00,VWS V14.01,2013-08-24 14:30:00,
2013-08-24 09:33:00,73.1,69.3,30.06,SSE,150,8.0,13.0,88,0.00,,CLR,0.00,VWS V14.01,2013-08-24 14:33:00,
2013-08-24 09:38:00,73.8,69.7,30.06,SE,133,9.0,13.0,87,0.00,,CLR,0.00,VWS V14.01,2013-08-24 14:38:00,
2013-08-24 09:43:00,74.6,70.8,30.06,SSE,148,9.0,13.0,88,0.00,,CLR,0.00,VWS V14.01,2013-08-24 14:43:00,
2013-08-24 09:48:00,74.8,70.0,30.06,South,177,8.0,17.0,85,0.00,,CLR,0.00,VWS V14.01,2013-08-24 14:48:00,
2013-08-24 09:53:00,75.1,69.9,30.06,SE,143,5.0,17.0,84,0.00,,CLR,0.00,VWS V14.01,2013-08-24 14:53:00,
2013-08-24 09:58:00,75.7,70.9,30.06,SW,217,7.0,17.0,85,0.00,,CLR,0.00,VWS V14.01,2013-08-24 14:58:00,
2013-08-24 10:00:00,72.0,68.6,30.06,SE,141,9.0,15.0,89,0.00,,,0.00,VWS V14.01,2013-08-24 15:00:00,
2013-08-24 10:03:00,75.8,70.6,30.06,South,173,10.0,13.0,84,0.00,,FEW075,0.00,VWS V14.01,2013-08-24 15:03:00,
2013-08-24 10:08:00,76.0,70.5,30.06,SSE,153,6.0,14.0,83,0.00,,FEW075,0.00,VWS V14.01,2013-08-24 15:08:00,
2013-08-24 10:12:00,76.4,71.2,30.06,SE,134,8.0,14.0,84,0.00,,FEW075,0.00,VWS V14.01,2013-08-24 15:12:00,
2013-08-24 10:17:00,76.8,70.9,30.05,SSW,199,6.0,16.0,82,0.00,,FEW075,0.00,VWS V14.01,2013-08-24 15:17:00,
2013-08-24 10:22:00,77.1,71.2,30.05,SSE,153,7.0,16.0,82,0.00,,FEW075,0.00,VWS V14.01,2013-08-24 15:22:00,
2013-08-24 10:27:00,77.5,71.6,30.05,SE,134,10.0,16.0,82,0.00,,FEW075,0.00,VWS V14.01,2013-08-24 15:27:00,
2013-08-24 10:30:00,72.9,69.1,30.06,SSE,154,8.0,15.0,88,0.00,,,0.00,VWS V14.01,2013-08-24 15:30:00,
2013-08-24 10:32:00,77.9,72.0,30.05,SSE,151,8.0,13.0,82,0.00,,FEW075,0.00,VWS V14.01,2013-08-24 15:32:00,
2013-08-24 10:37:00,78.2,71.9,30.05,SSE,150,10.0,13.0,81,0.00,,FEW075,0.00,VWS V14.01,2013-08-24 15:37:00,
2013-08-24 10:42:00,77.9,72.0,30.05,SE,134,11.0,14.0,82,0.00,,FEW075,0.00,VWS V14.01,2013-08-24 15:42:00,
2013-08-24 10:47:00,78.0,72.1,30.05,SE,129,11.0,14.0,82,0.00,,FEW075,0.00,VWS V14.01,2013-08-24 15:47:00,
2013-08-24 10:52:00,78.4,72.1,30.05,SSE,148,8.0,14.0,81,0.00,,FEW075,0.00,VWS V14.01,2013-08-24 15:52:00,
2013-08-24 10:57:00,78.9,72.2,30.05,SE,145,7.0,16.0,80,0.00,,FEW075,0.00,VWS V14.01,2013-08-24 15:57:00,
2013-08-24 11:00:00,75.7,70.2,30.06,SE,139,9.0,17.0,83,0.00,,,0.00,VWS V14.01,2013-08-24 16:00:00,
2013-08-24 11:02:00,79.4,73.1,30.04,SE,143,15.0,15.0,81,0.00,,SCT049,0.00,VWS V14.01,2013-08-24 16:02:00,
2013-08-24 11:07:00,79.6,73.3,30.04,SE,146,13.0,17.0,81,0.00,,SCT049,0.00,VWS V14.01,2013-08-24 16:07:00,
2013-08-24 11:12:00,79.7,72.6,30.04,SSE,156,12.0,17.0,79,0.00,,SCT049,0.00,VWS V14.01,2013-08-24 16:12:00,
2013-08-24 11:17:00,79.7,72.6,30.04,South,169,7.0,17.0,79,0.00,,SCT049,0.00,VWS V14.01,2013-08-24 16:17:00,
2013-08-24 11:22:00,79.9,72.8,30.04,SSE,149,10.0,17.0,79,0.00,,SCT049,0.00,VWS V14.01,2013-08-24 16:22:00,
2013-08-24 11:27:00,80.4,72.9,30.04,South,178,7.0,17.0,78,0.00,,SCT049,0.00,VWS V14.01,2013-08-24 16:27:00,
2013-08-24 11:30:00,77.7,71.8,30.05,SE,136,10.0,16.0,82,0.00,,,0.00,VWS V14.01,2013-08-24 16:30:00,
2013-08-24 11:32:00,80.8,74.1,30.04,SSE,148,14.0,14.0,80,0.00,,SCT049,0.00,VWS V14.01,2013-08-24 16:32:00,
2013-08-24 11:37:00,81.0,73.1,30.04,SSE,148,12.0,15.0,77,0.00,,SCT049,0.00,VWS V14.01,2013-08-24 16:37:00,
2013-08-24 11:42:00,80.6,72.7,30.03,SSE,150,8.0,15.0,77,0.00,,SCT049,0.00,VWS V14.01,2013-08-24 16:42:00,
2013-08-24 11:47:00,80.4,72.9,30.03,SE,140,5.0,16.0,78,0.00,,SCT049,0.00,VWS V14.01,2013-08-24 16:47:00,
2013-08-24 11:52:00,80.7,73.6,30.03,SSW,210,9.0,16.0,79,0.00,,SCT049,0.00,VWS V14.01,2013-08-24 16:52:00,
2013-08-24 11:57:00,81.2,73.3,30.03,SSE,159,13.0,17.0,77,0.00,,SCT049,0.00,VWS V14.01,2013-08-24 16:57:00,
2013-08-24 12:00:00,79.2,72.9,30.05,SSE,152,9.0,16.0,81,0.00,,,0.00,VWS V14.01,2013-08-24 17:00:00,
2013-08-24 12:02:00,81.3,73.4,30.03,SSE,158,8.0,16.0,77,0.00,,CLR,0.00,VWS V14.01,2013-08-24 17:02:00,
2013-08-24 12:07:00,81.2,72.9,30.03,SSE,159,8.0,18.0,76,0.00,,CLR,0.00,VWS V14.01,2013-08-24 17:07:00,
2013-08-24 12:12:00,81.0,73.1,30.02,SSW,203,10.0,18.0,77,0.00,,CLR,0.00,VWS V14.01,2013-08-24 17:12:00,
2013-08-24 12:17:00,80.9,73.0,30.02,SE,134,11.0,18.0,77,0.00,,CLR,0.00,VWS V14.01,2013-08-24 17:17:00,
2013-08-24 12:22:00,81.3,73.4,30.02,South,191,9.0,18.0,77,0.00,,CLR,0.00,VWS V14.01,2013-08-24 17:22:00,
2013-08-24 12:27:00,81.7,73.0,30.02,SE,138,12.0,20.0,75,0.00,,CLR,0.00,VWS V14.01,2013-08-24 17:27:00,
2013-08-24 12:30:00,80.7,74.0,30.04,SSW,208,7.0,17.0,80,0.00,,,0.00,VWS V14.01,2013-08-24 17:30:00,
2013-08-24 12:32:00,81.5,73.2,30.01,WSW,239,10.0,16.0,76,0.00,,CLR,0.00,VWS V14.01,2013-08-24 17:32:00,
2013-08-24 12:37:00,81.1,72.4,30.01,SE,129,9.0,17.0,75,0.00,,CLR,0.00,VWS V14.01,2013-08-24 17:37:00,
2013-08-24 12:42:00,80.8,72.9,30.01,SE,134,9.0,17.0,77,0.00,,CLR,0.00,VWS V14.01,2013-08-24 17:42:00,
2013-08-24 12:47:00,80.5,72.6,30.01,South,173,8.0,17.0,77,0.00,,CLR,0.00,VWS V14.01,2013-08-24 17:47:00,
2013-08-24 12:52:00,80.4,73.3,30.01,SSE,155,7.0,17.0,79,0.00,,CLR,0.00,VWS V14.01,2013-08-24 17:52:00,
2013-08-24 12:57:00,80.4,72.9,30.01,SE,143,7.0,17.0,78,0.00,,CLR,0.00,VWS V14.01,2013-08-24 17:57:00,
2013-08-24 13:00:00,81.3,73.8,30.03,SSE,155,5.0,17.0,78,0.00,,,0.00,VWS V14.01,2013-08-24 18:00:00,
2013-08-24 13:02:00,80.4,72.9,30.01,SSE,167,7.0,15.0,78,0.00,,CLR,0.00,VWS V14.01,2013-08-24 18:02:00,
2013-08-24 13:07:00,80.6,73.1,30.00,SSE,149,12.0,15.0,78,0.00,,CLR,0.00,VWS V14.01,2013-08-24 18:07:00,
2013-08-24 13:12:00,80.9,73.4,30.00,SSE,155,5.0,15.0,78,0.00,,CLR,0.00,VWS V14.01,2013-08-24 18:12:00,
2013-08-24 13:17:00,81.1,72.8,30.00,South,184,7.0,15.0,76,0.00,,CLR,0.00,VWS V14.01,2013-08-24 18:17:00,
2013-08-24 13:22:00,81.0,72.7,29.99,South,188,11.0,16.0,76,0.00,,CLR,0.00,VWS V14.01,2013-08-24 18:22:00,
2013-08-24 13:27:00,81.2,73.3,29.99,SSE,162,15.0,16.0,77,0.00,,CLR,0.00,VWS V14.01,2013-08-24 18:27:00,
2013-08-24 13:30:00,81.6,72.9,30.01,SSE,148,9.0,20.0,75,0.00,,,0.00,VWS V14.01,2013-08-24 18:30:00,
2013-08-24 13:32:00,81.5,73.6,29.99,SE,144,16.0,16.0,77,0.00,,CLR,0.00,VWS V14.01,2013-08-24 18:32:00,
2013-08-24 13:37:00,81.1,72.4,29.99,SSE,153,11.0,19.0,75,0.00,,CLR,0.00,VWS V14.01,2013-08-24 18:37:00,
2013-08-24 13:42:00,81.0,73.1,29.99,SSE,158,12.0,19.0,77,0.00,,CLR,0.00,VWS V14.01,2013-08-24 18:42:00,
2013-08-24 13:47:00,80.6,72.7,29.99,SSE,149,9.0,20.0,77,0.00,,CLR,0.00,VWS V14.01,2013-08-24 18:47:00,
2013-08-24 13:52:00,80.5,72.6,29.99,SSE,149,9.0,20.0,77,0.00,,CLR,0.00,VWS V14.01,2013-08-24 18:52:00,
2013-08-24 13:57:00,80.4,72.5,29.99,SE,127,12.0,20.0,77,0.00,,CLR,0.00,VWS V14.01,2013-08-24 18:57:00,
2013-08-24 14:00:00,80.4,72.9,30.00,SE,131,11.0,17.0,78,0.00,,,0.00,VWS V14.01,2013-08-24 19:00:00,
2013-08-24 14:02:00,80.3,72.1,29.99,SSW,195,5.0,10.0,76,0.00,,FEW039,0.00,VWS V14.01,2013-08-24 19:02:00,
2013-08-24 14:07:00,80.3,72.4,29.99,SE,146,7.0,14.0,77,0.00,,FEW039,0.00,VWS V14.01,2013-08-24 19:07:00,
2013-08-24 14:12:00,80.3,72.8,29.99,SE,131,11.0,14.0,78,0.00,,FEW039,0.00,VWS V14.01,2013-08-24 19:12:00,
2013-08-24 14:17:00,80.2,72.3,30.00,SSE,149,10.0,14.0,77,0.00,,FEW039,0.00,VWS V14.01,2013-08-24 19:17:00,
2013-08-24 14:22:00,80.0,72.2,30.00,SE,134,8.0,15.0,77,0.00,,FEW039,0.00,VWS V14.01,2013-08-24 19:22:00,
2013-08-24 14:27:00,79.8,72.3,30.00,SE,143,12.0,15.0,78,0.00,,FEW039,0.00,VWS V14.01,2013-08-24 19:27:00,
2013-08-24 14:30:00,81.4,73.1,29.99,SE,130,12.0,16.0,76,0.00,,,0.00,VWS V14.01,2013-08-24 19:30:00,
2013-08-24 14:32:00,79.6,72.9,30.00,SSE,147,7.0,10.0,80,0.00,,FEW039,0.00,VWS V14.01,2013-08-24 19:32:00,
2013-08-24 14:37:00,79.5,72.8,29.99,SSE,155,5.0,14.0,80,0.00,,FEW039,0.00,VWS V14.01,2013-08-24 19:37:00,
2013-08-24 14:42:00,79.4,72.7,29.99,South,177,7.0,14.0,80,0.00,,FEW039,0.00,VWS V14.01,2013-08-24 19:42:00,
2013-08-24 14:47:00,79.3,73.0,29.99,SE,136,7.0,14.0,81,0.00,,FEW039,0.00,VWS V14.01,2013-08-24 19:47:00,
2013-08-24 14:52:00,79.2,72.9,29.99,SE,132,6.0,14.0,81,0.00,,FEW039,0.00,VWS V14.01,2013-08-24 19:52:00,
2013-08-24 14:57:00,79.3,73.0,29.99,SE,138,7.0,14.0,81,0.00,,FEW039,0.00,VWS V14.01,2013-08-24 19:57:00,
2013-08-24 15:00:00,80.3,72.1,29.99,SSE,150,8.0,20.0,76,0.00,,,0.00,VWS V14.01,2013-08-24 20:00:00,
2013-08-24 15:02:00,79.4,73.4,29.99,SSE,150,9.0,12.0,82,0.00,,BKN110,0.00,VWS V14.01,2013-08-24 20:02:00,
2013-08-24 15:07:00,79.5,73.5,29.99,SE,136,8.0,12.0,82,0.00,,BKN110,0.00,VWS V14.01,2013-08-24 20:07:00,
2013-08-24 15:12:00,79.6,73.3,29.99,ESE,113,9.0,13.0,81,0.00,,BKN110,0.00,VWS V14.01,2013-08-24 20:12:00,
2013-08-24 15:17:00,79.8,73.4,29.99,SE,136,12.0,13.0,81,0.00,,BKN110,0.00,VWS V14.01,2013-08-24 20:17:00,
2013-08-24 15:22:00,80.0,73.7,29.99,SE,146,8.0,15.0,81,0.00,,BKN110,0.00,VWS V14.01,2013-08-24 20:22:00,
2013-08-24 15:27:00,80.1,73.8,29.99,SE,136,9.0,15.0,81,0.00,,BKN110,0.00,VWS V14.01,2013-08-24 20:27:00,
2013-08-24 15:30:00,79.7,72.6,30.00,SE,142,4.0,15.0,79,0.00,,,0.00,VWS V14.01,2013-08-24 20:30:00,
2013-08-24 15:32:00,80.2,73.8,29.99,SE,139,8.0,11.0,81,0.00,,BKN110,0.00,VWS V14.01,2013-08-24 20:32:00,
2013-08-24 15:37:00,80.3,73.9,29.99,SE,145,12.0,12.0,81,0.00,,BKN110,0.00,VWS V14.01,2013-08-24 20:37:00,
2013-08-24 15:42:00,80.4,74.4,29.99,ESE,121,11.0,12.0,82,0.00,,BKN110,0.00,VWS V14.01,2013-08-24 20:42:00,
2013-08-24 15:47:00,80.5,74.5,29.99,SE,141,7.0,18.0,82,0.00,,BKN110,0.00,VWS V14.01,2013-08-24 20:47:00,
2013-08-24 15:52:00,80.6,74.2,29.98,SE,135,11.0,18.0,81,0.00,,BKN110,0.00,VWS V14.01,2013-08-24 20:52:00,
2013-08-24 15:57:00,80.7,74.0,29.98,SE,127,12.0,18.0,80,0.00,,BKN110,0.00,VWS V14.01,2013-08-24 20:57:00,
2013-08-24 16:00:00,79.3,73.0,29.99,SE,128,12.0,14.0,81,0.00,,,0.00,VWS V14.01,2013-08-24 21:00:00,
2013-08-24 16:02:00,80.8,74.4,29.98,South,169,7.0,13.0,81,0.00,,CLR,0.00,VWS V14.01,2013-08-24 21:02:00,
2013-08-24 16:07:00,80.9,74.5,29.98,SE,135,12.0,15.0,81,0.00,,CLR,0.00,VWS V14.01,2013-08-24 21:07:00,
2013-08-24 16:12:00,81.0,74.6,29.98,SE,145,10.0,16.0,81,0.00,,CLR,0.00,VWS V14.01,2013-08-24 21:12:00,
2013-08-24 16:17:00,81.0,74.6,29.98,SE,136,11.0,16.0,81,0.00,,CLR,0.00,VWS V14.01,2013-08-24 21:17:00,
2013-08-24 16:22:00,81.0,74.2,29.98,SSE,152,13.0,16.0,80,0.00,,CLR,0.00,VWS V14.01,2013-08-24 21:22:00,
2013-08-24 16:27:00,81.1,74.7,29.97,SE,142,9.0,16.0,81,0.00,,CLR,0.00,VWS V14.01,2013-08-24 21:27:00,
2013-08-24 16:30:00,80.2,73.8,29.99,SE,139,7.0,15.0,81,0.00,,,0.00,VWS V14.01,2013-08-24 21:30:00,
2013-08-24 16:32:00,81.1,74.7,29.97,SSE,155,14.0,17.0,81,0.00,,CLR,0.00,VWS V14.01,2013-08-24 21:32:00,
2013-08-24 16:37:00,81.3,74.9,29.97,SSE,150,6.0,17.0,81,0.00,,CLR,0.00,VWS V14.01,2013-08-24 21:37:00,
2013-08-24 16:42:00,81.5,75.1,29.97,SE,146,9.0,17.0,81,0.00,,CLR,0.00,VWS V14.01,2013-08-24 21:42:00,
2013-08-24 16:47:00,81.8,74.7,29.97,ESE,123,9.0,17.0,79,0.00,,CLR,0.00,VWS V14.01,2013-08-24 21:47:00,
2013-08-24 16:52:00,82.2,75.0,29.97,SSE,147,8.0,17.0,79,0.00,,CLR,0.00,VWS V14.01,2013-08-24 21:52:00,
2013-08-24 16:57:00,82.3,74.8,29.97,SSE,153,11.0,17.0,78,0.00,,CLR,0.00,VWS V14.01,2013-08-24 21:57:00,
2013-08-24 17:00:00,80.8,74.4,29.98,SE,134,13.0,18.0,81,0.00,,,0.00,VWS V14.01,2013-08-24 22:00:00,
2013-08-24 17:02:00,82.4,74.5,29.97,SE,132,12.0,15.0,77,0.00,,FEW039,0.00,VWS V14.01,2013-08-24 22:02:00,
2013-08-24 17:07:00,82.5,74.9,29.97,SE,143,14.0,15.0,78,0.00,,FEW039,0.00,VWS V14.01,2013-08-24 22:07:00,
2013-08-24 17:12:00,82.5,74.9,29.97,SSE,154,12.0,16.0,78,0.00,,FEW039,0.00,VWS V14.01,2013-08-24 22:12:00,
2013-08-24 17:17:00,82.7,75.2,29.97,SSE,148,12.0,16.0,78,0.00,,FEW039,0.00,VWS V14.01,2013-08-24 22:17:00,
2013-08-24 17:22:00,82.7,74.8,29.97,SSE,148,13.0,17.0,77,0.00,,FEW039,0.00,VWS V14.01,2013-08-24 22:22:00,
2013-08-24 17:27:00,82.8,74.9,29.97,SE,136,12.0,17.0,77,0.00,,FEW039,0.00,VWS V14.01,2013-08-24 22:27:00,
2013-08-24 17:30:00,81.1,74.7,29.98,SSE,151,9.0,16.0,81,0.00,,,0.00,VWS V14.01,2013-08-24 22:30:00,
2013-08-24 17:32:00,82.8,74.9,29.97,SE,131,11.0,12.0,77,0.00,,FEW039,0.00,VWS V14.01,2013-08-24 22:32:00,
2013-08-24 17:37:00,82.7,74.4,29.97,SSW,195,7.0,16.0,76,0.00,,FEW039,0.00,VWS V14.01,2013-08-24 22:37:00,
2013-08-24 17:42:00,82.7,74.4,29.97,SSE,163,7.0,16.0,76,0.00,,FEW039,0.00,VWS V14.01,2013-08-24 22:42:00,
2013-08-24 17:47:00,82.5,74.2,29.97,SW,219,4.0,16.0,76,0.00,,FEW039,0.00,VWS V14.01,2013-08-24 22:47:00,
2013-08-24 17:52:00,82.4,74.1,29.97,SE,142,9.0,16.0,76,0.00,,FEW039,0.00,VWS V14.01,2013-08-24 22:52:00,
2013-08-24 17:57:00,82.3,74.0,29.97,SE,136,8.0,16.0,76,0.00,,FEW039,0.00,VWS V14.01,2013-08-24 22:57:00,
2013-08-24 18:00:00,82.4,74.5,29.98,SSE,166,16.0,19.0,77,0.00,,,0.00,VWS V14.01,2013-08-24 23:00:00,
2013-08-24 18:02:00,82.2,73.9,29.97,SSE,148,7.0,16.0,76,0.00,,CLR,0.00,VWS V14.01,2013-08-24 23:02:00,
2013-08-24 18:07:00,82.2,73.9,29.97,SE,136,14.0,16.0,76,0.00,,CLR,0.00,VWS V14.01,2013-08-24 23:07:00,
2013-08-24 18:12:00,82.2,74.3,29.97,SSE,150,8.0,16.0,77,0.00,,CLR,0.00,VWS V14.01,2013-08-24 23:12:00,
2013-08-24 18:17:00,82.1,74.2,29.97,SE,145,8.0,16.0,77,0.00,,CLR,0.00,VWS V14.01,2013-08-24 23:17:00,
2013-08-24 18:22:00,82.1,73.8,29.97,SSE,148,11.0,16.0,76,0.00,,CLR,0.00,VWS V14.01,2013-08-24 23:22:00,
2013-08-24 18:27:00,82.2,73.9,29.97,SE,127,9.0,19.0,76,0.00,,CLR,0.00,VWS V14.01,2013-08-24 23:27:00,
2013-08-24 18:30:00,82.8,74.9,29.97,SSE,150,11.0,17.0,77,0.00,,,0.00,VWS V14.01,2013-08-24 23:30:00,
2013-08-24 18:32:00,82.1,73.8,29.97,SE,143,8.0,15.0,76,0.00,,CLR,0.00,VWS V14.01,2013-08-24 23:32:00,
2013-08-24 18:37:00,82.1,74.2,29.96,ESE,123,8.0,16.0,77,0.00,,CLR,0.00,VWS V14.01,2013-08-24 23:37:00,
2013-08-24 18:42:00,82.0,74.1,29.96,ESE,119,12.0,16.0,77,0.00,,CLR,0.00,VWS V14.01,2013-08-24 23:42:00,
2013-08-24 18:47:00,81.9,74.0,29.96,SE,127,9.0,16.0,77,0.00,,CLR,0.00,VWS V14.01,2013-08-24 23:47:00,
2013-08-24 18:52:00,81.8,73.9,29.96,SE,135,7.0,16.0,77,0.00,,CLR,0.00,VWS V14.01,2013-08-24 23:52:00,
2013-08-24 18:57:00,81.6,73.7,29.96,SE,145,7.0,16.0,77,0.00,,CLR,0.00,VWS V14.01,2013-08-24 23:57:00,
2013-08-24 19:00:00,82.2,74.3,29.97,SSE,150,8.0,16.0,77,0.00,,,0.00,VWS V14.01,2013-08-25 00:00:00,
2013-08-24 19:02:00,81.6,74.1,29.96,SSE,153,10.0,11.0,78,0.00,,CLR,0.00,VWS V14.01,2013-08-25 00:02:00,
2013-08-24 19:07:00,81.4,73.9,29.96,SSE,153,8.0,13.0,78,0.00,,CLR,0.00,VWS V14.01,2013-08-25 00:07:00,
2013-08-24 19:12:00,81.3,73.8,29.96,SE,136,11.0,13.0,78,0.00,,CLR,0.00,VWS V14.01,2013-08-25 00:12:00,
2013-08-24 19:17:00,81.1,73.6,29.96,SE,134,7.0,13.0,78,0.00,,CLR,0.00,VWS V14.01,2013-08-25 00:17:00,
2013-08-24 19:22:00,80.9,73.8,29.96,SE,136,7.0,13.0,79,0.00,,CLR,0.00,VWS V14.01,2013-08-25 00:22:00,
2013-08-24 19:27:00,80.8,73.7,29.96,SE,139,7.0,13.0,79,0.00,,CLR,0.00,VWS V14.01,2013-08-25 00:27:00,
2013-08-24 19:30:00,82.2,73.9,29.96,SE,135,7.0,19.0,76,0.00,,,0.00,VWS V14.01,2013-08-25 00:30:00,
2013-08-24 19:32:00,80.6,73.9,29.96,SE,141,10.0,11.0,80,0.00,,CLR,0.00,VWS V14.01,2013-08-25 00:32:00,
2013-08-24 19:37:00,80.4,73.7,29.96,SE,145,7.0,12.0,80,0.00,,CLR,0.00,VWS V14.01,2013-08-25 00:37:00,
2013-08-24 19:42:00,80.3,73.6,29.96,SE,136,9.0,12.0,80,0.00,,CLR,0.00,VWS V14.01,2013-08-25 00:42:00,
2013-08-24 19:47:00,80.1,73.4,29.96,SSE,162,10.0,12.0,80,0.00,,CLR,0.00,VWS V14.01,2013-08-25 00:47:00,
2013-08-24 19:52:00,79.8,73.4,29.96,ESE,123,8.0,12.0,81,0.00,,CLR,0.00,VWS V14.01,2013-08-25 00:52:00,
2013-08-24 19:57:00,79.5,73.5,29.96,SSE,160,6.0,12.0,82,0.00,,CLR,0.00,VWS V14.01,2013-08-25 00:57:00,
2013-08-24 20:00:00,81.6,73.7,29.96,SE,134,7.0,16.0,77,0.00,,,0.00,VWS V14.01,2013-08-25 01:00:00,
2013-08-24 20:02:00,79.3,73.3,29.96,SSE,148,6.0,11.0,82,0.00,,CLR,0.00,VWS V14.01,2013-08-25 01:02:00,
2013-08-24 20:07:00,79.2,73.2,29.96,SSE,153,8.0,11.0,82,0.00,,CLR,0.00,VWS V14.01,2013-08-25 01:07:00,
2013-08-24 20:12:00,79.0,73.0,29.96,ESE,120,7.0,12.0,82,0.00,,CLR,0.00,VWS V14.01,2013-08-25 01:12:00,
2013-08-24 20:17:00,78.8,73.2,29.96,SSE,160,6.0,12.0,83,0.00,,CLR,0.00,VWS V14.01,2013-08-25 01:17:00,
2013-08-24 20:22:00,78.4,72.8,29.96,ESE,113,9.0,12.0,83,0.00,,CLR,0.00,VWS V14.01,2013-08-25 01:22:00,
2013-08-24 20:27:00,78.3,72.7,29.96,SE,131,7.0,12.0,83,0.00,,CLR,0.00,VWS V14.01,2013-08-25 01:27:00,
2013-08-24 20:30:00,80.6,73.5,29.96,ESE,116,11.0,13.0,79,0.00,,,0.00,VWS V14.01,2013-08-25 01:30:00,
2013-08-24 20:32:00,78.2,72.6,29.96,SE,136,10.0,11.0,83,0.00,,CLR,0.00,VWS V14.01,2013-08-25 01:32:00,
2013-08-24 20:37:00,78.1,72.5,29.96,SE,136,10.0,13.0,83,0.00,,CLR,0.00,VWS V14.01,2013-08-25 01:37:00,
2013-08-24 20:42:00,78.0,72.4,29.96,ESE,122,7.0,13.0,83,0.00,,CLR,0.00,VWS V14.01,2013-08-25 01:42:00,
2013-08-24 20:47:00,77.8,72.2,29.97,ESE,115,10.0,13.0,83,0.00,,CLR,0.00,VWS V14.01,2013-08-25 01:47:00,
2013-08-24 20:52:00,77.7,72.1,29.97,SSE,150,6.0,13.0,83,0.00,,CLR,0.00,VWS V14.01,2013-08-25 01:52:00,
2013-08-24 20:57:00,77.5,72.3,29.97,SSE,150,8.0,13.0,84,0.00,,CLR,0.00,VWS V14.01,2013-08-25 01:57:00,
2013-08-24 21:00:00,79.4,73.4,29.96,SSE,155,7.0,12.0,82,0.00,,,0.00,VWS V14.01,2013-08-25 02:00:00,
2013-08-24 21:02:00,77.4,72.2,29.97,South,172,7.0,11.0,84,0.00,,CLR,0.00,VWS V14.01,2013-08-25 02:02:00,
2013-08-24 21:07:00,77.2,72.0,29.98,SE,143,6.0,12.0,84,0.00,,CLR,0.00,VWS V14.01,2013-08-25 02:07:00,
2013-08-24 21:12:00,77.1,71.9,29.98,SE,140,10.0,12.0,84,0.00,,CLR,0.00,VWS V14.01,2013-08-25 02:12:00,
2013-08-24 21:17:00,77.0,72.2,29.98,SSE,150,5.0,12.0,85,0.00,,CLR,0.00,VWS V14.01,2013-08-25 02:17:00,
2013-08-24 21:22:00,76.8,71.9,29.98,SE,124,5.0,12.0,85,0.00,,CLR,0.00,VWS V14.01,2013-08-25 02:22:00,
2013-08-24 21:27:00,76.6,71.8,29.98,SE,129,6.0,12.0,85,0.00,,CLR,0.00,VWS V14.01,2013-08-25 02:27:00,
2013-08-24 21:30:00,78.2,72.6,29.96,SE,135,9.0,12.0,83,0.00,,,0.00,VWS V14.01,2013-08-25 02:30:00,
2013-08-24 21:32:00,76.5,72.0,29.98,SE,141,6.0,7.0,86,0.00,,CLR,0.00,VWS V14.01,2013-08-25 02:32:00,
2013-08-24 21:37:00,76.4,71.9,29.98,SE,125,6.0,10.0,86,0.00,,CLR,0.00,VWS V14.01,2013-08-25 02:37:00,
2013-08-24 21:42:00,76.3,71.8,29.98,SE,140,5.0,10.0,86,0.00,,CLR,0.00,VWS V14.01,2013-08-25 02:42:00,
2013-08-24 21:47:00,76.1,71.9,29.98,SE,135,8.0,10.0,87,0.00,,CLR,0.00,VWS V14.01,2013-08-25 02:47:00,
2013-08-24 21:52:00,76.0,71.9,29.98,SE,127,4.0,10.0,87,0.00,,CLR,0.00,VWS V14.01,2013-08-25 02:52:00,
2013-08-24 21:57:00,75.9,71.8,29.98,SE,136,6.0,10.0,87,0.00,,CLR,0.00,VWS V14.01,2013-08-25 02:57:00,
2013-08-24 22:00:00,77.4,72.2,29.97,SE,141,6.0,13.0,84,0.00,,,0.00,VWS V14.01,2013-08-25 03:00:00,
2013-08-24 22:02:00,75.7,71.9,29.98,SSE,150,6.0,8.0,88,0.00,,CLR,0.00,VWS V14.01,2013-08-25 03:02:00,
2013-08-24 22:07:00,75.6,71.8,29.99,SE,129,6.0,8.0,88,0.00,,CLR,0.00,VWS V14.01,2013-08-25 03:07:00,
2013-08-24 22:12:00,75.4,71.6,29.98,SE,138,4.0,8.0,88,0.00,,CLR,0.00,VWS V14.01,2013-08-25 03:12:00,
2013-08-24 22:17:00,75.1,71.6,29.99,SE,143,3.0,8.0,89,0.00,,CLR,0.00,VWS V14.01,2013-08-25 03:17:00,
2013-08-24 22:22:00,74.9,71.4,29.99,SE,144,3.0,8.0,89,0.00,,CLR,0.00,VWS V14.01,2013-08-25 03:22:00,
2013-08-24 22:27:00,74.7,71.6,29.98,SE,132,4.0,8.0,90,0.00,,CLR,0.00,VWS V14.01,2013-08-25 03:27:00,
2013-08-24 22:30:00,76.5,72.0,29.98,SSE,153,6.0,12.0,86,0.00,,,0.00,VWS V14.01,2013-08-25 03:30:00,
2013-08-24 22:32:00,74.6,71.5,29.99,SE,142,4.0,6.0,90,0.00,,CLR,0.00,VWS V14.01,2013-08-25 03:32:00,
2013-08-24 22:37:00,74.5,71.4,29.99,SE,139,6.0,8.0,90,0.00,,CLR,0.00,VWS V14.01,2013-08-25 03:37:00,
2013-08-24 22:42:00,74.5,71.4,29.99,SE,134,5.0,9.0,90,0.00,,CLR,0.00,VWS V14.01,2013-08-25 03:42:00,
2013-08-24 22:47:00,74.5,71.4,29.98,SE,133,5.0,9.0,90,0.00,,CLR,0.00,VWS V14.01,2013-08-25 03:47:00,
2013-08-24 22:52:00,74.5,71.4,29.99,SE,141,4.0,9.0,90,0.00,,CLR,0.00,VWS V14.01,2013-08-25 03:52:00,
2013-08-24 22:57:00,74.5,71.4,29.98,SE,145,6.0,9.0,90,0.00,,CLR,0.00,VWS V14.01,2013-08-25 03:57:00,
2013-08-24 23:00:00,75.8,71.7,29.98,SE,145,5.0,10.0,87,0.00,,,0.00,VWS V14.01,2013-08-25 04:00:00,
2013-08-24 23:01:00,74.5,71.1,29.98,SE,140,7.0,7.0,89,0.00,,CLR,0.00,VWS V14.01,2013-08-25 04:01:00,
2013-08-24 23:02:00,74.5,71.1,29.98,SE,145,7.0,10.0,89,0.00,,CLR,0.00,VWS V14.01,2013-08-25 04:02:00,
2013-08-24 23:07:00,74.5,71.1,29.98,SSE,158,8.0,11.0,89,0.00,,CLR,0.00,VWS V14.01,2013-08-25 04:07:00,
2013-08-24 23:12:00,74.5,71.1,29.98,SE,145,4.0,11.0,89,0.00,,CLR,0.00,VWS V14.01,2013-08-25 04:12:00,
2013-08-24 23:17:00,74.6,71.2,29.98,SE,134,6.0,12.0,89,0.00,,CLR,0.00,VWS V14.01,2013-08-25 04:17:00,
2013-08-24 23:22:00,74.6,71.2,29.98,SE,127,6.0,12.0,89,0.00,,CLR,0.00,VWS V14.01,2013-08-25 04:22:00,
2013-08-24 23:27:00,74.6,71.2,29.98,SE,139,6.0,12.0,89,0.00,,CLR,0.00,VWS V14.01,2013-08-25 04:27:00,
2013-08-24 23:30:00,74.6,71.5,29.99,SSE,167,4.0,8.0,90,0.00,,,0.00,VWS V14.01,2013-08-25 04:30:00,
2013-08-24 23:32:00,74.6,71.2,29.98,SSE,153,5.0,8.0,89,0.00,,CLR,0.00,VWS V14.01,2013-08-25 04:32:00,
2013-08-24 23:37:00,74.7,70.9,29.98,SSE,153,3.0,9.0,88,0.00,,CLR,0.00,VWS V14.01,2013-08-25 04:37:00,
2013-08-24 23:42:00,74.8,71.0,29.98,South,170,4.0,9.0,88,0.00,,CLR,0.00,VWS V14.01,2013-08-25 04:42:00,
2013-08-24 23:47:00,74.7,70.9,29.98,SE,141,6.0,9.0,88,0.00,,CLR,0.00,VWS V14.01,2013-08-25 04:47:00,
2013-08-24 23:52:00,74.8,71.0,29.98,South,184,8.0,11.0,88,0.00,,CLR,0.00,VWS V14.01,2013-08-25 04:52:00,
2013-08-24 23:57:00,74.9,70.8,29.98,South,189,4.0,11.0,87,0.00,,CLR,0.00,VWS V14.01,2013-08-25 04:57:00,